createdAt,value
2022-12-01T00:01:20.927Z,35.60
2022-12-01T00:03:47.288Z,34.17
2022-12-01T00:06:15.784Z,36.83
2022-12-01T00:09:05.611Z,33.85
2022-12-01T00:11:32.583Z,32.15
2022-12-01T00:14:00.293Z,25.10
2022-12-01T00:16:26.696Z,32.40
2022-12-01T00:18:53.426Z,34.63
2022-12-01T00:21:24.035Z,28.00
2022-12-01T00:23:51.435Z,32.03
2022-12-01T00:26:18.398Z,29.58
2022-12-01T00:28:47.956Z,33.47
2022-12-01T00:31:14.361Z,32.17
2022-12-01T00:33:40.767Z,31.98
2022-12-01T00:36:08.547Z,34.15
2022-12-01T00:38:35.287Z,27.15
2022-12-01T00:41:01.862Z,33.28
2022-12-01T00:43:28.202Z,30.75
2022-12-01T00:45:56.305Z,33.45
2022-12-01T00:48:22.844Z,31.95
2022-12-01T00:50:50.825Z,31.38
2022-12-01T00:53:17.165Z,30.33
2022-12-01T00:55:43.535Z,32.70
2022-12-01T00:58:09.862Z,33.03
2022-12-01T01:00:38.609Z,34.50
2022-12-01T01:03:08.175Z,33.72
2022-12-01T01:05:38.014Z,33.28
2022-12-01T01:08:08.064Z,30.95
2022-12-01T01:10:37.913Z,29.05
2022-12-01T01:13:04.201Z,32.03
2022-12-01T01:15:30.502Z,29.08
2022-12-01T01:17:56.849Z,31.15
2022-12-01T01:20:23.244Z,30.98
2022-12-01T01:22:49.671Z,31.05
2022-12-01T01:25:16.049Z,30.42
2022-12-01T01:27:42.337Z,32.75
2022-12-01T01:30:08.863Z,32.25
2022-12-01T01:32:35.224Z,31.30
2022-12-01T01:35:01.542Z,30.38
2022-12-01T01:37:27.870Z,27.10
2022-12-01T01:39:54.179Z,30.77
2022-12-01T01:42:20.844Z,32.13
2022-12-01T01:44:47.214Z,31.33
2022-12-01T01:47:14.645Z,31.63
2022-12-01T01:49:41.265Z,31.52
2022-12-01T01:52:07.877Z,33.30
2022-12-01T01:54:46.218Z,31.40
2022-12-01T01:57:15.069Z,26.45
2022-12-01T01:59:45.803Z,31.95
2022-12-01T02:02:12.761Z,33.45
2022-12-01T02:04:45.330Z,34.05
2022-12-01T02:07:12.701Z,30.60
2022-12-01T02:09:39.065Z,32.55
2022-12-01T02:12:23.922Z,30.10
2022-12-01T02:15:08.970Z,35.05
2022-12-01T02:17:53.678Z,33.88
2022-12-01T02:20:26.081Z,30.17
2022-12-01T02:23:11.024Z,33.72
2022-12-01T02:25:56.084Z,30.45
2022-12-01T02:28:41.193Z,32.10
2022-12-01T02:31:24.545Z,34.53
2022-12-01T02:34:05.993Z,29.75
2022-12-01T02:36:34.327Z,33.83
2022-12-01T02:39:14.962Z,35.28
2022-12-01T02:41:48.295Z,36.30
2022-12-01T02:44:17.792Z,33.85
2022-12-01T02:46:56.335Z,34.40
2022-12-01T02:49:26.001Z,31.42
2022-12-01T02:51:54.044Z,34.55
2022-12-01T02:54:20.937Z,31.23
2022-12-01T02:56:51.190Z,36.60
2022-12-01T02:59:17.529Z,33.78
2022-12-01T03:01:53.166Z,34.45
2022-12-01T03:04:37.733Z,34.38
2022-12-01T03:07:26.966Z,34.80
2022-12-01T03:09:53.402Z,35.22
2022-12-01T03:12:29.249Z,33.78
2022-12-01T03:15:31.035Z,27.85
2022-12-01T03:18:01.146Z,31.05
2022-12-01T03:20:47.299Z,31.70
2022-12-01T03:23:20.525Z,33.28
2022-12-01T03:25:48.364Z,33.40
2022-12-01T03:28:23.556Z,33.40
2022-12-01T03:30:55.687Z,33.97
2022-12-01T03:33:27.770Z,30.63
2022-12-01T03:35:55.987Z,32.10
2022-12-01T03:38:24.908Z,27.95
2022-12-01T03:40:53.574Z,30.88
2022-12-01T03:43:22.190Z,34.92
2022-12-01T03:46:14.550Z,34.60
2022-12-01T03:48:41.903Z,34.63
2022-12-01T03:51:14.967Z,36.08
2022-12-01T03:54:05.681Z,33.55
2022-12-01T03:56:36.227Z,35.65
2022-12-01T03:59:04.355Z,33.05
2022-12-01T04:01:32.739Z,33.05
2022-12-01T04:04:11.396Z,31.70
2022-12-01T04:06:38.997Z,34.17
2022-12-01T04:09:05.370Z,34.45
2022-12-01T04:12:04.293Z,36.05
2022-12-01T04:14:30.618Z,33.53
2022-12-01T04:16:56.977Z,35.80
2022-12-01T04:19:23.273Z,34.17
2022-12-01T04:21:49.645Z,33.95
2022-12-01T04:24:16.364Z,35.47
2022-12-01T04:26:43.394Z,35.88
2022-12-01T04:29:10.658Z,35.88
2022-12-01T04:31:37.539Z,36.60
2022-12-01T04:34:03.961Z,34.20
2022-12-01T04:36:31.569Z,35.83
2022-12-01T04:38:58.108Z,30.77
2022-12-01T04:41:24.546Z,35.95
2022-12-01T04:43:52.756Z,35.97
2022-12-01T04:46:19.131Z,35.20
2022-12-01T04:48:45.530Z,36.13
2022-12-01T04:51:11.878Z,37.20
2022-12-01T04:53:38.472Z,35.53
2022-12-01T04:56:05.319Z,38.35
2022-12-01T04:58:32.336Z,34.45
2022-12-01T05:01:05.984Z,37.97
2022-12-01T05:03:32.324Z,34.45
2022-12-01T05:06:02.452Z,37.28
2022-12-01T05:08:28.776Z,36.58
2022-12-01T05:10:55.755Z,37.00
2022-12-01T05:13:22.182Z,36.95
2022-12-01T05:15:48.902Z,36.92
2022-12-01T05:18:15.305Z,37.33
2022-12-01T05:20:59.776Z,35.38
2022-12-01T05:23:26.983Z,37.17
2022-12-01T05:25:53.550Z,37.50
2022-12-01T05:28:20.013Z,36.85
2022-12-01T05:30:46.410Z,37.38
2022-12-01T05:33:12.886Z,36.45
2022-12-01T05:35:39.310Z,36.58
2022-12-01T05:38:08.037Z,38.47
2022-12-01T05:40:34.858Z,35.42
2022-12-01T05:43:01.239Z,38.97
2022-12-01T05:45:27.698Z,38.28
2022-12-01T05:47:54.776Z,39.60
2022-12-01T05:50:21.584Z,35.63
2022-12-01T05:52:47.893Z,39.83
2022-12-01T05:55:14.309Z,37.80
2022-12-01T05:57:40.581Z,40.03
2022-12-01T06:00:07.773Z,38.88
2022-12-01T06:02:40.093Z,35.05
2022-12-01T06:05:06.845Z,36.45
2022-12-01T06:07:34.601Z,38.53
2022-12-01T06:10:01.409Z,40.92
2022-12-01T06:12:28.074Z,41.05
2022-12-01T06:14:54.425Z,36.15
2022-12-01T06:17:20.711Z,40.72
2022-12-01T06:19:48.332Z,39.42
2022-12-01T06:22:14.812Z,41.13
2022-12-01T06:24:41.149Z,38.42
2022-12-01T06:27:07.478Z,39.75
2022-12-01T06:29:37.718Z,41.88
2022-12-01T06:32:07.059Z,42.63
2022-12-01T06:34:33.403Z,40.22
2022-12-01T06:36:59.747Z,41.00
2022-12-01T06:39:26.030Z,41.45
2022-12-01T06:41:52.324Z,40.72
2022-12-01T06:44:18.762Z,40.58
2022-12-01T06:46:45.142Z,41.33
2022-12-01T06:49:12.265Z,41.45
2022-12-01T06:51:39.107Z,42.03
2022-12-01T06:54:05.931Z,41.92
2022-12-01T06:56:32.350Z,42.70
2022-12-01T06:58:59.012Z,42.20
2022-12-01T07:01:26.020Z,43.13
2022-12-01T07:03:52.391Z,42.53
2022-12-01T07:06:18.721Z,42.03
2022-12-01T07:08:45.058Z,45.67
2022-12-01T07:11:12.596Z,46.20
2022-12-01T07:13:39.443Z,44.63
2022-12-01T07:16:06.085Z,45.28
2022-12-01T07:18:32.938Z,44.90
2022-12-01T07:21:00.314Z,47.17
2022-12-01T07:23:26.700Z,45.40
2022-12-01T07:26:00.280Z,47.08
2022-12-01T07:28:26.875Z,43.17
2022-12-01T07:30:53.233Z,44.55
2022-12-01T07:33:19.628Z,46.83
2022-12-01T07:35:45.957Z,48.97
2022-12-01T07:38:12.277Z,45.83
2022-12-01T07:40:38.624Z,49.15
2022-12-01T07:43:04.934Z,46.13
2022-12-01T07:45:31.227Z,47.13
2022-12-01T07:47:57.544Z,47.38
2022-12-01T07:50:23.873Z,46.03
2022-12-01T07:52:50.749Z,31.35
2022-12-01T07:55:17.121Z,47.15
2022-12-01T07:57:43.405Z,48.08
2022-12-01T08:00:09.961Z,46.22
2022-12-01T08:02:38.303Z,45.33
2022-12-01T08:05:04.795Z,43.38
2022-12-01T08:07:31.136Z,44.97
2022-12-01T08:09:57.538Z,45.60
2022-12-01T08:12:23.945Z,42.50
2022-12-01T08:14:50.224Z,45.95
2022-12-01T08:17:16.497Z,40.90
2022-12-01T08:19:42.825Z,45.13
2022-12-01T08:22:09.177Z,44.30
2022-12-01T08:24:35.627Z,46.47
2022-12-01T08:27:01.900Z,43.42
2022-12-01T08:29:28.174Z,44.38
2022-12-01T08:31:56.849Z,42.92
2022-12-01T08:34:23.306Z,45.00
2022-12-01T08:36:49.665Z,43.35
2022-12-01T08:39:16.038Z,41.92
2022-12-01T08:41:42.622Z,37.67
2022-12-01T08:44:10.044Z,42.40
2022-12-01T08:46:36.478Z,45.80
2022-12-01T08:49:04.523Z,39.88
2022-12-01T08:51:30.923Z,44.50
2022-12-01T08:53:58.993Z,43.15
2022-12-01T08:56:27.132Z,43.35
2022-12-01T08:58:54.011Z,44.88
2022-12-01T09:01:20.752Z,40.78
2022-12-01T09:03:47.243Z,40.22
2022-12-01T09:06:15.164Z,41.88
2022-12-01T09:08:41.790Z,42.03
2022-12-01T09:11:10.491Z,42.75
2022-12-01T09:13:37.293Z,39.80
2022-12-01T09:16:05.963Z,44.08
2022-12-01T09:18:32.448Z,40.08
2022-12-01T09:20:58.916Z,41.75
2022-12-01T09:23:25.829Z,43.53
2022-12-01T09:25:52.576Z,45.70
2022-12-01T09:28:19.238Z,39.85
2022-12-01T09:30:46.443Z,43.78
2022-12-01T09:33:13.209Z,44.85
2022-12-01T09:35:39.520Z,43.22
2022-12-01T09:38:05.850Z,43.85
2022-12-01T09:40:35.064Z,43.20
2022-12-01T09:43:03.283Z,45.53
2022-12-01T09:45:31.265Z,45.95
2022-12-01T09:47:59.380Z,38.72
2022-12-01T09:50:27.334Z,44.97
2022-12-01T09:52:57.075Z,44.55
2022-12-01T09:55:24.881Z,44.08
2022-12-01T09:57:55.497Z,47.97
2022-12-01T10:00:23.311Z,44.08
2022-12-01T10:02:52.289Z,43.75
2022-12-01T10:05:20.162Z,44.70
2022-12-01T10:07:48.726Z,42.75
2022-12-01T10:10:18.064Z,42.42
2022-12-01T10:12:46.491Z,39.28
2022-12-01T10:15:12.806Z,40.55
2022-12-01T10:17:57.912Z,39.22
2022-12-01T10:20:30.350Z,42.58
2022-12-01T10:23:08.780Z,40.70
2022-12-01T10:25:46.621Z,41.30
2022-12-01T10:28:31.250Z,41.55
2022-12-01T10:31:02.847Z,43.42
2022-12-01T10:33:52.305Z,36.72
2022-12-01T10:36:18.734Z,38.00
2022-12-01T10:38:45.102Z,43.05
2022-12-01T10:41:14.256Z,44.55
2022-12-01T10:43:44.706Z,44.05
2022-12-01T10:46:27.253Z,43.35
2022-12-01T10:48:58.136Z,44.17
2022-12-01T10:51:25.535Z,40.63
2022-12-01T10:53:58.029Z,41.15
2022-12-01T10:56:24.557Z,39.22
2022-12-01T10:58:55.558Z,36.40
2022-12-01T11:01:21.965Z,38.70
2022-12-01T11:04:01.491Z,40.05
2022-12-01T11:06:29.008Z,38.85
2022-12-01T11:08:57.523Z,37.28
2022-12-01T11:11:26.221Z,35.83
2022-12-01T11:13:53.703Z,39.97
2022-12-01T11:16:38.604Z,38.08
2022-12-01T11:19:09.947Z,36.00
2022-12-01T11:21:44.688Z,35.13
2022-12-01T11:24:24.961Z,36.72
2022-12-01T11:26:51.414Z,37.65
2022-12-01T11:29:36.308Z,37.90
2022-12-01T11:32:11.524Z,36.95
2022-12-01T11:34:38.621Z,39.88
2022-12-01T11:37:09.219Z,39.45
2022-12-01T11:39:39.621Z,40.70
2022-12-01T11:42:07.063Z,33.92
2022-12-01T11:47:23.702Z,34.55
2022-12-01T11:49:56.424Z,34.83
2022-12-01T11:52:30.601Z,29.63
2022-12-01T11:55:06.952Z,35.35
2022-12-01T11:57:36.201Z,34.97
2022-12-01T12:00:12.179Z,35.25
2022-12-01T12:02:44.012Z,31.98
2022-12-01T12:05:13.173Z,33.83
2022-12-01T12:07:39.579Z,31.63
2022-12-01T12:10:14.522Z,35.00
2022-12-01T12:12:59.528Z,34.30
2022-12-01T12:15:44.774Z,32.95
2022-12-01T12:18:21.962Z,35.42
2022-12-01T12:20:48.221Z,28.15
2022-12-01T12:23:24.620Z,31.45
2022-12-01T12:26:26.339Z,33.67
2022-12-01T12:28:56.963Z,30.60
2022-12-01T12:31:43.558Z,28.00
2022-12-01T12:34:19.125Z,29.15
2022-12-01T12:37:00.649Z,31.40
2022-12-01T12:39:27.033Z,30.55
2022-12-01T12:41:54.914Z,32.75
2022-12-01T12:44:53.439Z,29.63
2022-12-01T12:47:25.381Z,32.58
2022-12-01T12:50:00.937Z,21.53
2022-12-01T12:52:33.768Z,33.90
2022-12-01T12:57:31.095Z,32.40
2022-12-01T13:00:00.158Z,32.70
2022-12-01T13:02:27.034Z,31.52
2022-12-01T13:04:59.785Z,29.95
2022-12-01T13:07:35.320Z,34.42
2022-12-01T13:10:10.626Z,25.27
2022-12-01T13:12:40.224Z,28.73
2022-12-01T13:15:14.566Z,24.17
2022-12-01T13:17:43.265Z,31.23
2022-12-01T13:20:18.132Z,32.63
2022-12-01T13:22:46.015Z,28.95
2022-12-01T13:25:16.738Z,29.08
2022-12-01T13:27:44.013Z,31.25
2022-12-01T13:30:17.854Z,31.98
2022-12-01T13:32:44.307Z,30.30
2022-12-01T13:35:29.397Z,28.45
2022-12-01T13:37:57.242Z,31.77
2022-12-01T13:40:25.331Z,25.98
2022-12-01T13:43:04.234Z,29.50
2022-12-01T13:45:36.053Z,29.90
2022-12-01T13:48:03.236Z,32.80
2022-12-01T13:50:47.695Z,29.20
2022-12-01T13:53:25.122Z,29.50
2022-12-01T13:55:56.549Z,29.23
2022-12-01T13:58:24.993Z,28.33
2022-12-01T14:00:51.493Z,29.77
2022-12-01T14:03:19.329Z,30.60
2022-12-01T14:05:56.205Z,28.73
2022-12-01T14:08:24.243Z,30.05
2022-12-01T14:10:57.854Z,27.65
2022-12-01T14:13:24.678Z,29.80
2022-12-01T14:15:55.665Z,18.05
2022-12-01T14:18:32.961Z,30.40
2022-12-01T14:20:59.880Z,26.75
2022-12-01T14:23:29.050Z,28.98
2022-12-01T14:26:01.332Z,27.60
2022-12-01T14:28:46.257Z,29.30
2022-12-01T14:31:12.865Z,28.10
2022-12-01T14:33:39.383Z,28.95
2022-12-01T14:36:12.762Z,29.00
2022-12-01T14:38:39.548Z,27.67
2022-12-01T14:41:10.208Z,30.88
2022-12-01T14:43:57.044Z,26.42
2022-12-01T14:46:26.086Z,26.48
2022-12-01T14:48:54.349Z,25.23
2022-12-01T14:51:28.288Z,29.98
2022-12-01T14:53:55.711Z,29.15
2022-12-01T14:56:22.901Z,30.08
2022-12-01T14:58:52.291Z,60.03
2022-12-01T15:01:19.160Z,34.70
2022-12-01T15:03:47.396Z,29.98
2022-12-01T15:06:18.690Z,30.52
2022-12-01T15:08:58.219Z,31.42
2022-12-01T15:11:30.966Z,29.35
2022-12-01T15:13:57.635Z,29.25
2022-12-01T15:16:25.604Z,28.48
2022-12-01T15:18:52.237Z,28.17
2022-12-01T15:21:29.212Z,26.05
2022-12-01T15:24:02.946Z,28.23
2022-12-01T15:26:30.934Z,28.98
2022-12-01T15:29:04.267Z,32.95
2022-12-01T15:31:30.795Z,30.48
2022-12-01T15:33:57.408Z,30.15
2022-12-01T15:36:23.897Z,29.52
2022-12-01T15:38:50.328Z,30.13
2022-12-01T15:41:30.575Z,29.33
2022-12-01T15:44:05.330Z,28.80
2022-12-01T15:46:34.121Z,31.48
2022-12-01T15:49:16.469Z,30.25
2022-12-01T15:51:43.059Z,29.23
2022-12-01T15:54:16.830Z,25.77
2022-12-01T15:56:44.311Z,28.75
2022-12-01T15:59:13.386Z,28.38
2022-12-01T16:01:41.648Z,31.15
2022-12-01T16:04:25.018Z,30.35
2022-12-01T16:06:54.367Z,30.23
2022-12-01T16:09:29.796Z,30.70
2022-12-01T16:12:22.876Z,29.20
2022-12-01T16:14:55.289Z,31.15
2022-12-01T16:17:22.400Z,29.55
2022-12-01T16:19:48.875Z,31.40
2022-12-01T16:22:20.122Z,31.40
2022-12-01T16:24:50.920Z,35.30
2022-12-01T16:27:21.984Z,31.63
2022-12-01T16:29:55.949Z,33.67
2022-12-01T16:32:23.590Z,33.17
2022-12-01T16:34:51.401Z,28.88
2022-12-01T16:37:18.072Z,33.00
2022-12-01T16:39:44.636Z,34.17
2022-12-01T16:42:14.950Z,35.08
2022-12-01T16:44:42.552Z,32.58
2022-12-01T16:47:13.046Z,33.20
2022-12-01T16:49:39.437Z,30.27
2022-12-01T16:52:22.020Z,31.25
2022-12-01T16:54:52.401Z,29.08
2022-12-01T16:57:18.893Z,30.67
2022-12-01T16:59:45.269Z,29.45
2022-12-01T17:02:11.878Z,31.70
2022-12-01T17:04:38.304Z,30.33
2022-12-01T17:07:04.689Z,29.58
2022-12-01T17:09:30.984Z,29.25
2022-12-01T17:11:57.524Z,28.85
2022-12-01T17:14:24.001Z,27.63
2022-12-01T17:16:50.417Z,30.17
2022-12-01T17:19:17.573Z,30.67
2022-12-01T17:21:44.008Z,27.95
2022-12-01T17:24:10.373Z,31.52
2022-12-01T17:26:36.841Z,30.73
2022-12-01T17:29:04.532Z,31.77
2022-12-01T17:31:30.985Z,30.67
2022-12-01T17:33:57.368Z,31.17
2022-12-01T17:36:23.649Z,31.38
2022-12-01T17:38:50.434Z,33.38
2022-12-01T17:41:18.167Z,32.45
2022-12-01T17:43:44.649Z,31.30
2022-12-01T17:46:12.029Z,34.33
2022-12-01T17:48:39.713Z,35.20
2022-12-01T17:51:06.429Z,34.17
2022-12-01T17:53:33.054Z,36.60
2022-12-01T17:55:59.337Z,33.95
2022-12-01T17:58:25.659Z,34.03
2022-12-01T18:00:53.883Z,33.83
2022-12-01T18:03:20.805Z,32.67
2022-12-01T18:06:00.623Z,32.50
2022-12-01T18:08:28.238Z,34.28
2022-12-01T18:10:54.694Z,34.05
2022-12-01T18:13:21.983Z,31.75
2022-12-01T18:15:48.484Z,36.15
2022-12-01T18:18:14.947Z,35.47
2022-12-01T18:20:42.336Z,35.40
2022-12-01T18:23:08.965Z,33.90
2022-12-01T18:25:39.458Z,34.35
2022-12-01T18:28:06.156Z,33.70
2022-12-01T18:30:33.002Z,35.17
2022-12-01T18:32:59.867Z,36.90
2022-12-01T18:35:31.570Z,41.80
2022-12-01T18:37:58.295Z,41.92
2022-12-01T18:40:25.943Z,37.88
2022-12-01T18:42:52.263Z,41.60
2022-12-01T18:45:21.484Z,42.15
2022-12-01T18:47:48.032Z,36.70
2022-12-01T18:50:14.413Z,36.40
2022-12-01T18:52:40.734Z,37.05
2022-12-01T18:55:07.249Z,64.18
2022-12-01T18:57:33.629Z,59.38
2022-12-01T18:59:59.971Z,62.88
2022-12-01T19:02:26.373Z,47.13
2022-12-01T19:04:52.980Z,39.63
2022-12-01T19:07:19.398Z,36.30
2022-12-01T19:09:46.152Z,35.83
2022-12-01T19:12:12.640Z,35.63
2022-12-01T19:14:40.148Z,41.35
2022-12-01T19:17:06.441Z,40.30
2022-12-01T19:19:37.192Z,38.13
2022-12-01T19:22:04.467Z,36.58
2022-12-01T19:24:30.846Z,47.35
2022-12-01T19:26:57.168Z,39.25
2022-12-01T19:29:24.237Z,36.75
2022-12-01T19:31:50.699Z,37.90
2022-12-01T19:34:17.161Z,37.10
2022-12-01T19:36:43.492Z,37.83
2022-12-01T19:39:11.180Z,43.08
2022-12-01T19:41:38.385Z,37.97
2022-12-01T19:44:04.841Z,42.35
2022-12-01T19:46:31.239Z,38.35
2022-12-01T19:49:00.294Z,36.28
2022-12-01T19:51:28.049Z,37.47
2022-12-01T19:53:54.642Z,36.33
2022-12-01T19:56:21.601Z,36.85
2022-12-01T19:58:48.067Z,37.28
2022-12-01T20:01:15.244Z,38.17
2022-12-01T20:03:41.898Z,36.67
2022-12-01T20:06:09.879Z,37.85
2022-12-01T20:08:36.560Z,36.63
2022-12-01T20:11:04.149Z,37.33
2022-12-01T20:13:31.776Z,40.28
2022-12-01T20:16:17.443Z,39.30
2022-12-01T20:18:44.291Z,38.67
2022-12-01T20:21:17.262Z,39.40
2022-12-01T20:23:44.629Z,37.58
2022-12-01T20:26:11.621Z,37.92
2022-12-01T20:28:38.867Z,37.15
2022-12-01T20:31:09.925Z,38.58
2022-12-01T20:33:36.365Z,40.78
2022-12-01T20:36:02.880Z,42.15
2022-12-01T20:38:29.260Z,37.00
2022-12-01T20:40:55.599Z,39.08
2022-12-01T20:43:21.960Z,38.50
2022-12-01T20:45:48.514Z,39.65
2022-12-01T20:48:15.017Z,41.63
2022-12-01T20:50:41.341Z,39.65
2022-12-01T20:53:07.664Z,41.50
2022-12-01T20:55:34.678Z,40.67
2022-12-01T20:58:02.635Z,49.13
2022-12-01T21:00:29.615Z,40.15
2022-12-01T21:02:56.962Z,39.70
2022-12-01T21:05:24.010Z,39.05
2022-12-01T21:07:50.462Z,39.92
2022-12-01T21:10:19.937Z,42.55
2022-12-01T21:13:07.923Z,34.40
2022-12-01T21:15:37.897Z,39.97
2022-12-01T21:18:08.409Z,39.20
2022-12-01T21:20:39.227Z,42.90
2022-12-01T21:23:09.962Z,39.72
2022-12-01T21:25:37.655Z,42.38
2022-12-01T21:28:10.328Z,47.20
2022-12-01T21:30:36.710Z,44.35
2022-12-01T21:33:33.800Z,41.85
2022-12-01T21:36:01.842Z,44.92
2022-12-01T21:38:28.346Z,44.45
2022-12-01T21:40:54.679Z,58.17
2022-12-01T21:43:22.625Z,53.42
2022-12-01T21:45:50.459Z,44.92
2022-12-01T21:48:18.468Z,41.47
2022-12-01T21:50:48.115Z,40.20
2022-12-01T21:53:19.917Z,39.58
2022-12-01T21:55:47.562Z,46.72
2022-12-01T21:58:22.358Z,43.88
2022-12-01T22:00:48.998Z,37.92
2022-12-01T22:03:25.053Z,39.85
2022-12-01T22:06:21.323Z,38.72
2022-12-01T22:08:40.999Z,37.60
2022-12-01T22:11:18.455Z,37.05
2022-12-01T22:13:46.133Z,36.60
2022-12-01T22:16:32.736Z,38.22
2022-12-01T22:19:07.938Z,40.15
2022-12-01T22:21:35.807Z,40.83
2022-12-01T22:24:13.417Z,42.35
2022-12-01T22:26:41.290Z,41.83
2022-12-01T22:29:27.264Z,40.60
2022-12-01T22:32:13.936Z,41.85
2022-12-01T22:34:42.392Z,40.42
2022-12-01T22:37:19.841Z,42.33
2022-12-01T22:39:46.966Z,39.47
2022-12-01T22:42:14.656Z,44.38
2022-12-01T22:44:42.496Z,43.25
2022-12-01T22:47:09.420Z,44.22
2022-12-01T22:49:35.792Z,44.13
2022-12-01T22:52:02.931Z,46.80
2022-12-01T22:54:32.475Z,43.13
2022-12-01T22:56:58.797Z,44.85
2022-12-01T22:59:31.546Z,44.67
2022-12-01T23:04:28.216Z,46.88
2022-12-01T23:07:02.704Z,40.65
2022-12-01T23:09:31.999Z,44.60
2022-12-01T23:12:13.813Z,47.22
2022-12-01T23:14:42.967Z,45.17
2022-12-01T23:17:19.122Z,42.40
2022-12-01T23:19:45.681Z,46.92
2022-12-01T23:22:12.013Z,39.75
2022-12-01T23:24:39.116Z,49.40
2022-12-01T23:27:06.252Z,49.15
2022-12-01T23:29:33.185Z,46.95
2022-12-01T23:31:59.537Z,49.05
2022-12-01T23:34:26.006Z,48.10
2022-12-01T23:36:52.586Z,49.85
2022-12-01T23:39:21.921Z,49.78
2022-12-01T23:41:49.922Z,48.00
2022-12-01T23:44:34.842Z,42.22
2022-12-01T23:47:01.346Z,50.53
2022-12-01T23:49:29.863Z,48.67
2022-12-01T23:51:58.085Z,50.28
2022-12-01T23:54:26.554Z,49.10
2022-12-01T23:56:54.965Z,48.95
2022-12-01T23:59:21.600Z,51.70
